createdAt,value
2023-06-15T00:02:21.204Z,7.35
2023-06-15T00:05:06.615Z,7.88
2023-06-15T00:07:51.925Z,8.00
2023-06-15T00:10:37.425Z,7.93
2023-06-15T00:13:22.841Z,7.97
2023-06-15T00:16:08.440Z,7.88
2023-06-15T00:18:53.683Z,8.43
2023-06-15T00:21:39.052Z,8.73
2023-06-15T00:24:24.489Z,8.52
2023-06-15T00:27:10.593Z,9.10
2023-06-15T00:29:55.718Z,9.40
2023-06-15T00:32:41.220Z,8.65
2023-06-15T00:35:26.841Z,7.40
2023-06-15T00:38:11.816Z,6.95
2023-06-15T00:40:57.246Z,8.18
2023-06-15T00:43:42.580Z,7.82
2023-06-15T00:46:27.971Z,8.10
2023-06-15T00:49:13.423Z,8.48
2023-06-15T00:51:58.450Z,7.90
2023-06-15T00:54:44.973Z,8.23
2023-06-15T00:57:31.342Z,8.48
2023-06-15T01:00:16.768Z,8.02
2023-06-15T01:03:02.703Z,7.55
2023-06-15T01:05:48.620Z,7.43
2023-06-15T01:08:33.945Z,7.07
2023-06-15T01:11:20.488Z,7.15
2023-06-15T01:14:06.054Z,7.85
2023-06-15T01:16:54.474Z,7.70
2023-06-15T01:19:46.092Z,7.97
2023-06-15T01:22:43.409Z,7.65
2023-06-15T01:25:28.306Z,8.07
2023-06-15T01:28:17.481Z,7.35
2023-06-15T01:31:03.173Z,7.18
2023-06-15T01:33:52.539Z,7.75
2023-06-15T01:36:38.210Z,8.60
2023-06-15T01:39:23.717Z,8.77
2023-06-15T01:42:09.314Z,8.90
2023-06-15T01:44:55.194Z,8.85
2023-06-15T01:47:41.147Z,9.55
2023-06-15T01:50:26.666Z,9.32
2023-06-15T01:53:12.174Z,8.70
2023-06-15T01:55:58.982Z,8.95
2023-06-15T01:58:44.196Z,9.00
2023-06-15T02:01:29.482Z,8.25
2023-06-15T02:04:14.831Z,9.05
2023-06-15T02:07:00.203Z,9.30
2023-06-15T02:09:45.737Z,9.57
2023-06-15T02:12:31.052Z,9.00
2023-06-15T02:15:16.380Z,8.85
2023-06-15T02:18:01.633Z,8.50
2023-06-15T02:20:46.983Z,9.70
2023-06-15T02:23:32.354Z,8.50
2023-06-15T02:26:17.781Z,8.95
2023-06-15T02:29:03.111Z,8.93
2023-06-15T02:31:48.575Z,8.88
2023-06-15T02:34:34.339Z,8.73
2023-06-15T02:37:19.302Z,9.05
2023-06-15T02:40:05.642Z,9.48
2023-06-15T02:42:50.892Z,9.50
2023-06-15T02:45:36.581Z,10.35
2023-06-15T02:48:21.857Z,10.68
2023-06-15T02:51:07.897Z,11.00
2023-06-15T02:53:53.421Z,10.73
2023-06-15T02:56:38.757Z,9.93
2023-06-15T02:59:24.581Z,9.85
2023-06-15T03:02:09.620Z,9.40
2023-06-15T03:04:54.981Z,9.93
2023-06-15T03:07:40.358Z,10.70
2023-06-15T03:10:25.713Z,10.43
2023-06-15T03:13:11.322Z,9.50
2023-06-15T03:15:56.709Z,9.90
2023-06-15T03:18:41.610Z,10.15
2023-06-15T03:21:26.945Z,10.63
2023-06-15T03:24:12.397Z,10.88
2023-06-15T03:26:59.472Z,11.23
2023-06-15T03:29:44.501Z,10.88
2023-06-15T03:32:29.882Z,10.63
2023-06-15T03:35:15.816Z,10.80
2023-06-15T03:38:01.009Z,10.25
2023-06-15T03:40:46.508Z,11.57
2023-06-15T03:43:31.814Z,11.65
2023-06-15T03:46:17.279Z,11.57
2023-06-15T03:49:02.809Z,11.77
2023-06-15T03:51:49.121Z,11.88
2023-06-15T03:54:34.599Z,11.98
2023-06-15T03:57:19.893Z,11.15
2023-06-15T04:00:07.830Z,11.48
2023-06-15T04:02:54.897Z,11.88
2023-06-15T04:05:40.395Z,12.15
2023-06-15T04:08:25.770Z,10.90
2023-06-15T04:11:11.044Z,11.40
2023-06-15T04:13:56.457Z,11.52
2023-06-15T04:16:41.886Z,11.00
2023-06-15T04:19:27.218Z,10.02
2023-06-15T04:22:12.766Z,10.00
2023-06-15T04:24:58.025Z,10.02
2023-06-15T04:27:43.462Z,10.32
2023-06-15T04:30:29.500Z,10.18
2023-06-15T04:33:14.764Z,10.52
2023-06-15T04:36:00.181Z,9.48
2023-06-15T04:38:45.438Z,9.75
2023-06-15T04:41:31.400Z,9.48
2023-06-15T04:44:16.397Z,10.00
2023-06-15T04:47:01.322Z,9.77
2023-06-15T04:49:46.654Z,9.98
2023-06-15T04:52:32.218Z,10.80
2023-06-15T04:55:17.761Z,10.75
2023-06-15T04:58:03.325Z,10.15
2023-06-15T05:00:48.587Z,9.95
2023-06-15T05:03:34.617Z,10.85
2023-06-15T05:06:19.623Z,9.93
2023-06-15T05:09:05.165Z,9.80
2023-06-15T05:11:50.337Z,10.73
2023-06-15T05:14:35.780Z,11.30
2023-06-15T05:17:20.865Z,10.63
2023-06-15T05:20:06.653Z,11.10
2023-06-15T05:22:52.067Z,11.73
2023-06-15T05:25:37.344Z,11.65
2023-06-15T05:28:22.729Z,11.00
2023-06-15T05:31:07.975Z,11.95
2023-06-15T05:33:53.963Z,12.02
2023-06-15T05:36:55.965Z,11.55
2023-06-15T05:39:42.534Z,11.30
2023-06-15T05:42:27.962Z,11.40
2023-06-15T05:45:15.082Z,10.70
2023-06-15T05:48:02.809Z,11.25
2023-06-15T05:50:48.126Z,10.25
2023-06-15T05:53:33.495Z,10.35
2023-06-15T05:56:18.801Z,21.45
2023-06-15T05:59:03.927Z,23.25
2023-06-15T06:01:49.098Z,8.02
2023-06-15T06:04:34.884Z,7.60
2023-06-15T06:07:20.370Z,8.20
2023-06-15T06:10:07.282Z,7.50
2023-06-15T06:12:53.663Z,7.20
2023-06-15T06:15:38.964Z,6.72
2023-06-15T06:18:24.346Z,7.20
2023-06-15T06:21:09.755Z,6.90
2023-06-15T06:23:55.061Z,7.20
2023-06-15T06:26:40.434Z,6.60
2023-06-15T06:29:25.359Z,13.02
2023-06-15T06:32:10.862Z,15.00
2023-06-15T06:34:56.169Z,6.82
2023-06-15T06:37:41.475Z,6.65
2023-06-15T06:40:27.324Z,6.15
2023-06-15T06:43:12.835Z,6.10
2023-06-15T06:45:58.343Z,6.13
2023-06-15T06:48:43.760Z,6.80
2023-06-15T06:51:28.986Z,6.50
2023-06-15T06:54:14.289Z,6.20
2023-06-15T06:57:00.091Z,6.63
2023-06-15T06:59:45.385Z,6.55
2023-06-15T07:02:30.824Z,5.88
2023-06-15T07:05:16.442Z,6.90
2023-06-15T07:08:02.042Z,6.97
2023-06-15T07:10:47.425Z,7.65
2023-06-15T07:13:32.940Z,7.28
2023-06-15T07:16:18.274Z,7.57
2023-06-15T07:19:03.820Z,7.63
2023-06-15T07:21:49.344Z,6.82
2023-06-15T07:24:34.772Z,6.65
2023-06-15T07:27:20.233Z,7.20
2023-06-15T07:30:06.167Z,7.13
2023-06-15T07:32:51.477Z,6.60
2023-06-15T07:35:37.016Z,6.82
2023-06-15T07:38:22.194Z,6.55
2023-06-15T07:41:07.933Z,5.95
2023-06-15T07:43:52.942Z,6.60
2023-06-15T07:46:38.463Z,6.40
2023-06-15T07:49:29.836Z,6.00
2023-06-15T07:52:26.194Z,5.70
2023-06-15T07:55:11.572Z,5.75
2023-06-15T07:57:56.996Z,5.60
2023-06-15T08:00:42.222Z,5.50
2023-06-15T08:03:27.588Z,5.30
2023-06-15T08:06:12.811Z,5.97
2023-06-15T08:08:58.479Z,4.88
2023-06-15T08:11:43.720Z,5.10
2023-06-15T08:14:28.822Z,5.00
2023-06-15T08:17:14.241Z,4.75
2023-06-15T08:20:01.168Z,5.30
2023-06-15T08:22:50.174Z,5.50
2023-06-15T08:25:37.368Z,5.30
2023-06-15T08:28:23.091Z,5.28
2023-06-15T08:31:08.562Z,4.80
2023-06-15T08:33:53.834Z,4.75
2023-06-15T08:36:39.267Z,4.47
2023-06-15T08:39:24.930Z,5.03
2023-06-15T08:42:10.003Z,4.45
2023-06-15T08:44:55.855Z,4.85
2023-06-15T08:47:42.108Z,5.03
2023-06-15T08:50:26.996Z,4.82
2023-06-15T08:53:13.836Z,4.47
2023-06-15T08:55:59.494Z,4.70
2023-06-15T08:58:44.970Z,4.60
2023-06-15T09:01:31.841Z,4.65
2023-06-15T09:04:18.341Z,3.80
2023-06-15T09:07:04.357Z,4.18
2023-06-15T09:10:11.600Z,4.43
2023-06-15T09:12:58.500Z,4.28
2023-06-15T09:15:44.095Z,4.30
2023-06-15T09:18:29.959Z,4.10
2023-06-15T09:21:18.220Z,4.20
2023-06-15T09:24:05.094Z,4.15
2023-06-15T09:26:50.450Z,3.85
2023-06-15T09:29:36.213Z,4.00
2023-06-15T09:32:21.808Z,4.15
2023-06-15T09:35:07.213Z,3.95
2023-06-15T09:37:56.334Z,4.07
2023-06-15T09:40:41.384Z,4.30
2023-06-15T09:43:30.426Z,3.72
2023-06-15T09:46:16.857Z,3.63
2023-06-15T09:49:04.921Z,3.80
2023-06-15T09:51:50.808Z,4.18
2023-06-15T09:54:36.151Z,4.05
2023-06-15T09:57:21.352Z,3.60
2023-06-15T10:00:07.455Z,3.60
2023-06-15T10:02:53.224Z,3.65
2023-06-15T10:05:41.574Z,3.55
2023-06-15T10:08:27.697Z,3.63
2023-06-15T10:11:13.299Z,3.50
2023-06-15T10:14:06.149Z,3.35
2023-06-15T10:17:04.924Z,4.00
2023-06-15T10:19:54.521Z,3.83
2023-06-15T10:22:56.105Z,3.63
2023-06-15T10:25:43.558Z,3.97
2023-06-15T10:28:33.162Z,3.25
2023-06-15T10:31:30.295Z,3.40
2023-06-15T10:34:40.153Z,3.30
2023-06-15T10:37:34.340Z,3.40
2023-06-15T10:40:31.628Z,3.50
2023-06-15T10:43:18.200Z,3.40
2023-06-15T10:46:03.622Z,3.42
2023-06-15T10:48:53.919Z,3.08
2023-06-15T10:51:51.021Z,3.70
2023-06-15T10:54:36.806Z,3.60
2023-06-15T10:57:27.585Z,3.80
2023-06-15T11:00:13.580Z,3.33
2023-06-15T11:02:58.882Z,3.60
2023-06-15T11:05:44.278Z,3.50
2023-06-15T11:08:42.002Z,3.42
2023-06-15T11:11:32.724Z,3.25
2023-06-15T11:14:21.723Z,3.78
2023-06-15T11:17:07.083Z,3.38
2023-06-15T11:19:52.164Z,3.55
2023-06-15T11:22:37.833Z,3.42
2023-06-15T11:25:23.038Z,3.65
2023-06-15T11:28:11.560Z,3.40
2023-06-15T11:31:03.263Z,3.75
2023-06-15T11:33:48.517Z,3.22
2023-06-15T11:36:33.964Z,3.15
2023-06-15T11:39:23.657Z,3.47
2023-06-15T11:42:10.049Z,3.50
2023-06-15T11:44:55.654Z,3.30
2023-06-15T11:47:42.036Z,3.30
2023-06-15T11:50:27.347Z,3.30
2023-06-15T11:53:16.474Z,3.30
2023-06-15T11:56:02.344Z,3.47
2023-06-15T11:58:49.284Z,3.15
2023-06-15T12:01:36.959Z,3.60
2023-06-15T12:04:22.104Z,3.35
2023-06-15T12:07:07.480Z,3.28
2023-06-15T12:09:53.250Z,3.30
2023-06-15T12:12:38.588Z,3.10
2023-06-15T12:15:24.201Z,3.03
2023-06-15T12:18:09.704Z,3.30
2023-06-15T12:20:54.801Z,3.00
2023-06-15T12:23:40.411Z,3.05
2023-06-15T12:26:33.679Z,3.28
2023-06-15T12:29:21.110Z,3.03
2023-06-15T12:32:06.577Z,3.30
2023-06-15T12:34:52.021Z,12.32
2023-06-15T12:37:50.168Z,3.30
2023-06-15T12:40:43.314Z,3.40
2023-06-15T12:43:28.343Z,3.00
2023-06-15T12:46:13.938Z,3.50
2023-06-15T12:48:59.564Z,3.15
2023-06-15T12:51:45.040Z,3.40
2023-06-15T12:54:30.440Z,3.05
2023-06-15T12:57:15.778Z,3.10
2023-06-15T13:00:01.211Z,3.20
2023-06-15T13:02:47.146Z,2.95
2023-06-15T13:05:32.187Z,3.20
2023-06-15T13:08:17.455Z,3.00
2023-06-15T13:11:02.979Z,3.10
2023-06-15T13:13:48.163Z,3.20
2023-06-15T13:16:33.626Z,2.90
2023-06-15T13:19:19.053Z,3.25
2023-06-15T13:22:04.420Z,3.13
2023-06-15T13:24:49.894Z,3.20
2023-06-15T13:27:35.487Z,2.92
2023-06-15T13:30:20.881Z,3.00
2023-06-15T13:33:06.418Z,3.15
2023-06-15T13:35:51.530Z,3.10
2023-06-15T13:38:37.037Z,3.53
2023-06-15T13:41:22.578Z,3.35
2023-06-15T13:44:07.900Z,3.30
2023-06-15T13:46:53.351Z,3.50
2023-06-15T13:49:38.496Z,3.33
2023-06-15T13:52:23.454Z,3.20
2023-06-15T13:55:09.536Z,3.30
2023-06-15T13:57:54.635Z,3.10
2023-06-15T14:00:39.681Z,3.20
2023-06-15T14:03:25.149Z,3.50
2023-06-15T14:06:10.585Z,3.33
2023-06-15T14:08:56.024Z,3.17
2023-06-15T14:11:40.931Z,3.58
2023-06-15T14:14:27.750Z,3.75
2023-06-15T14:17:13.859Z,3.28
2023-06-15T14:19:59.045Z,3.53
2023-06-15T14:22:44.262Z,3.13
2023-06-15T14:25:29.633Z,3.58
2023-06-15T14:28:16.075Z,3.50
2023-06-15T14:31:01.800Z,3.22
2023-06-15T14:33:47.046Z,3.33
2023-06-15T14:36:32.269Z,3.60
2023-06-15T14:39:18.133Z,3.75
2023-06-15T14:42:03.923Z,3.42
2023-06-15T14:44:49.458Z,3.45
2023-06-15T14:47:35.884Z,3.67
2023-06-15T14:50:22.154Z,3.67
2023-06-15T14:53:07.592Z,4.00
2023-06-15T14:55:52.865Z,3.72
2023-06-15T14:58:38.251Z,3.67
2023-06-15T15:01:23.895Z,3.22
2023-06-15T15:04:09.150Z,3.72
2023-06-15T15:06:54.667Z,3.80
2023-06-15T15:09:40.152Z,4.88
2023-06-15T15:12:25.950Z,3.70
2023-06-15T15:15:11.811Z,6.68
2023-06-15T15:17:57.165Z,3.70
2023-06-15T15:20:42.504Z,3.70
2023-06-15T15:23:27.885Z,3.90
2023-06-15T15:26:13.377Z,3.90
2023-06-15T15:28:59.190Z,4.35
2023-06-15T15:31:45.075Z,4.43
2023-06-15T15:34:31.562Z,3.92
2023-06-15T15:37:18.077Z,3.92
2023-06-15T15:40:03.367Z,4.35
2023-06-15T15:42:48.360Z,4.10
2023-06-15T15:45:35.959Z,4.30
2023-06-15T15:48:21.095Z,3.95
2023-06-15T15:51:07.713Z,4.10
2023-06-15T15:53:53.037Z,4.30
2023-06-15T15:56:38.315Z,4.10
2023-06-15T15:59:23.569Z,3.95
2023-06-15T16:02:09.293Z,4.10
2023-06-15T16:04:54.667Z,4.10
2023-06-15T16:07:40.960Z,4.50
2023-06-15T16:10:26.432Z,4.05
2023-06-15T16:13:11.920Z,3.60
2023-06-15T16:18:47.685Z,3.95
2023-06-15T16:21:33.193Z,3.83
2023-06-15T16:24:19.853Z,4.10
2023-06-15T16:27:05.628Z,3.72
2023-06-15T16:29:51.134Z,3.78
2023-06-15T16:32:37.779Z,3.90
2023-06-15T16:35:23.025Z,4.20
2023-06-15T16:38:08.504Z,3.83
2023-06-15T16:40:53.993Z,7.93
2023-06-15T16:43:39.334Z,4.32
2023-06-15T16:46:24.802Z,3.75
2023-06-15T16:49:10.105Z,4.28
2023-06-15T16:51:55.703Z,4.00
2023-06-15T16:54:41.653Z,4.00
2023-06-15T16:57:27.220Z,3.60
2023-06-15T17:00:12.845Z,3.90
2023-06-15T17:02:58.239Z,4.00
2023-06-15T17:05:43.583Z,4.03
2023-06-15T17:08:28.834Z,3.60
2023-06-15T17:11:14.252Z,3.70
2023-06-15T17:13:59.846Z,3.67
2023-06-15T17:16:45.968Z,4.47
2023-06-15T17:19:31.552Z,4.07
2023-06-15T17:22:16.725Z,3.58
2023-06-15T17:25:02.157Z,3.42
2023-06-15T17:27:47.309Z,3.88
2023-06-15T17:30:32.695Z,4.00
2023-06-15T17:33:18.058Z,3.97
2023-06-15T17:36:03.545Z,4.18
2023-06-15T17:38:48.785Z,3.92
2023-06-15T17:41:34.255Z,3.78
2023-06-15T17:44:19.866Z,3.85
2023-06-15T17:47:05.284Z,4.10
2023-06-15T17:49:50.472Z,4.07
2023-06-15T17:52:37.329Z,3.63
2023-06-15T17:55:23.259Z,3.60
2023-06-15T17:58:08.534Z,3.65
2023-06-15T18:00:53.886Z,3.83
2023-06-15T18:03:39.899Z,3.85
2023-06-15T18:06:25.214Z,3.88
2023-06-15T18:09:10.565Z,3.97
2023-06-15T18:11:55.944Z,3.90
2023-06-15T18:14:41.545Z,3.92
2023-06-15T18:17:26.973Z,3.55
2023-06-15T18:20:12.322Z,4.00
2023-06-15T18:22:57.518Z,4.00
2023-06-15T18:25:42.871Z,4.05
2023-06-15T18:28:28.358Z,3.90
2023-06-15T18:31:13.834Z,3.60
2023-06-15T18:33:58.973Z,3.65
2023-06-15T18:36:44.356Z,3.50
2023-06-15T18:39:29.619Z,4.40
2023-06-15T18:42:16.039Z,4.00
2023-06-15T18:45:01.435Z,4.18
2023-06-15T18:47:47.094Z,4.43
2023-06-15T18:50:32.355Z,3.72
2023-06-15T18:53:17.776Z,3.90
2023-06-15T18:56:03.347Z,4.00
2023-06-15T18:58:48.957Z,3.90
2023-06-15T19:01:34.417Z,4.35
2023-06-15T19:04:19.767Z,3.60
2023-06-15T19:07:05.532Z,4.03
2023-06-15T19:09:50.582Z,3.70
2023-06-15T19:12:35.982Z,3.78
2023-06-15T19:15:21.675Z,4.10
2023-06-15T19:18:07.080Z,4.15
2023-06-15T19:20:52.308Z,4.03
2023-06-15T19:23:37.615Z,3.83
2023-06-15T19:26:22.941Z,3.80
2023-06-15T19:29:08.360Z,3.55
2023-06-15T19:31:53.899Z,6.43
2023-06-15T19:34:39.092Z,3.90
2023-06-15T19:37:24.481Z,3.90
2023-06-15T19:40:10.253Z,3.85
2023-06-15T19:42:55.612Z,4.18
2023-06-15T19:45:41.125Z,3.60
2023-06-15T19:48:27.432Z,3.90
2023-06-15T19:51:12.731Z,3.75
2023-06-15T19:53:58.361Z,3.70
2023-06-15T19:56:43.569Z,3.60
2023-06-15T19:59:29.088Z,3.80
2023-06-15T20:02:14.789Z,5.70
2023-06-15T20:04:59.965Z,3.80
2023-06-15T20:07:45.389Z,3.60
2023-06-15T20:10:30.631Z,3.65
2023-06-15T20:13:16.046Z,3.85
2023-06-15T20:16:05.438Z,3.70
2023-06-15T20:18:52.524Z,3.75
2023-06-15T20:21:37.478Z,3.72
2023-06-15T20:24:22.940Z,3.67
2023-06-15T20:27:08.349Z,3.85
2023-06-15T20:29:53.766Z,4.13
2023-06-15T20:32:39.217Z,8.50
2023-06-15T20:35:25.046Z,4.60
2023-06-15T20:38:10.532Z,3.80
2023-06-15T20:40:55.972Z,3.67
2023-06-15T20:43:41.424Z,3.80
2023-06-15T20:46:26.826Z,3.60
2023-06-15T20:49:12.180Z,3.88
2023-06-15T20:51:57.799Z,3.90
2023-06-15T20:54:43.118Z,4.03
2023-06-15T20:57:28.637Z,3.85
2023-06-15T21:00:14.419Z,3.80
2023-06-15T21:03:00.117Z,3.85
2023-06-15T21:05:45.570Z,4.00
2023-06-15T21:08:30.944Z,4.00
2023-06-15T21:11:16.129Z,4.45
2023-06-15T21:14:01.592Z,4.20
2023-06-15T21:16:46.955Z,4.53
2023-06-15T21:19:32.632Z,4.50
2023-06-15T21:22:18.016Z,4.40
2023-06-15T21:25:04.049Z,4.25
2023-06-15T21:27:49.244Z,4.45
2023-06-15T21:30:34.393Z,4.28
2023-06-15T21:33:19.719Z,4.60
2023-06-15T21:36:05.723Z,4.20
2023-06-15T21:38:51.037Z,4.38
2023-06-15T21:41:36.366Z,4.35
2023-06-15T21:44:21.600Z,4.43
2023-06-15T21:47:06.956Z,4.18
2023-06-15T21:49:52.474Z,4.45
2023-06-15T21:52:37.963Z,4.40
2023-06-15T21:55:23.473Z,4.25
2023-06-15T21:58:08.762Z,4.55
2023-06-15T22:00:54.255Z,4.63
2023-06-15T22:03:40.050Z,4.60
2023-06-15T22:06:25.189Z,4.78
2023-06-15T22:09:10.539Z,4.55
2023-06-15T22:11:56.210Z,4.80
2023-06-15T22:14:41.321Z,4.50
2023-06-15T22:17:26.523Z,4.90
2023-06-15T22:20:12.800Z,4.80
2023-06-15T22:22:58.036Z,4.72
2023-06-15T22:25:54.559Z,5.07
2023-06-15T22:28:41.847Z,4.38
2023-06-15T22:31:27.416Z,4.63
2023-06-15T22:34:12.685Z,4.88
2023-06-15T22:36:58.179Z,4.47
2023-06-15T22:39:43.556Z,4.47
2023-06-15T22:42:28.875Z,4.35
2023-06-15T22:45:14.438Z,4.63
2023-06-15T22:47:59.861Z,4.63
2023-06-15T22:50:45.224Z,4.70
2023-06-15T22:53:30.628Z,5.07
2023-06-15T22:56:16.307Z,4.60
2023-06-15T22:59:01.612Z,5.07
2023-06-15T23:01:46.933Z,4.85
2023-06-15T23:04:32.545Z,4.90
2023-06-15T23:07:17.717Z,4.90
2023-06-15T23:10:02.853Z,4.78
2023-06-15T23:12:48.382Z,4.50
2023-06-15T23:15:33.831Z,4.32
2023-06-15T23:18:20.664Z,4.68
2023-06-15T23:21:05.641Z,4.72
2023-06-15T23:26:54.206Z,5.20
2023-06-15T23:29:39.660Z,5.10
2023-06-15T23:32:25.152Z,4.88
2023-06-15T23:35:10.416Z,4.88
2023-06-15T23:37:55.974Z,4.97
2023-06-15T23:40:41.510Z,5.00
2023-06-15T23:43:26.756Z,5.30
2023-06-15T23:46:12.185Z,4.80
2023-06-15T23:48:57.429Z,5.20
2023-06-15T23:51:42.891Z,5.05
2023-06-15T23:54:28.205Z,4.78
2023-06-15T23:57:13.729Z,5.03
2023-06-15T23:59:59.160Z,4.60
